MAUNA LOA HI US current weather conditions

sailwx.info

Wind from 230 at 1 knots gusting 9

Air temperature 17.2° C
Dewpoint 17.1° C

Last reported at 2016-Aug-24 00:34 UTC.
Time now 2016-Aug-24 01:34 UTC

Location: N 19°28' W 155°22'.
View on Google Maps.

See reports from other nearby stations

  
Tides and Currents Weather Stations Pressure Air Temp Water Temp Dewpoint Dewpoint Depression Visibility Wind Speed Wind Dir Waves Ship Positions
date/time (UTC)wind fromknots sea level pressurealtimeterstation pressurevisibilityair tempwater tempwave heightnotes
2016-Aug-24 00:34 230 1 gusting 9 17.2
2016-Aug-23 23:34 121 5 gusting 11 17.2
2016-Aug-23 22:34 150 3 gusting 10 18.3
2016-Aug-23 21:34 148 4 gusting 9 21.7
2016-Aug-23 20:34 147 3 gusting 11 21.1
2016-Aug-23 19:34 180 5 gusting 11 21.7
2016-Aug-23 18:34 210 3 gusting 6 18.9
2016-Aug-23 17:34 16.1
2016-Aug-23 16:34 168 0 gusting 6 15.6
2016-Aug-23 15:34 205 2 gusting 6 15.6
2016-Aug-23 14:34 230 0 gusting 6 15.6
2016-Aug-23 13:34 136 1 gusting 8 15.6
2016-Aug-23 12:34 228 4 gusting 8 16.1
2016-Aug-23 11:34 220 2 gusting 4 15.6
2016-Aug-23 10:34 263 1 gusting 5 15.6
2016-Aug-23 09:34 15.6
2016-Aug-23 08:34 15.6
2016-Aug-23 07:34 16.1
2016-Aug-23 06:34 16.1
2016-Aug-23 05:34 330 0 gusting 5 16.1
2016-Aug-23 04:34 301 0 gusting 3 16.1
2016-Aug-23 03:34 066 0 gusting 6 16.7
2016-Aug-23 02:34 063 1 gusting 6 17.2
2016-Aug-23 01:34 107 3 gusting 6 17.8
2016-Aug-23 00:34 170 3 gusting 9 17.2
2016-Aug-22 23:34 191 5 gusting 10 17.8
2016-Aug-22 22:34 116 1 gusting 6 17.2
2016-Aug-22 21:34 151 3 gusting 6 18.9
2016-Aug-22 20:34 124 2 gusting 9 21.1
2016-Aug-22 19:34 121 1 gusting 6 20.6
2016-Aug-22 18:34 185 1 gusting 5 19.4
2016-Aug-22 17:34 195 1 gusting 4 16.7
2016-Aug-22 16:34 287 1 gusting 4 14.4
2016-Aug-22 15:34 278 3 gusting 5 13.9
2016-Aug-22 14:34 289 0 gusting 4 14.4
2016-Aug-22 13:34 325 2 gusting 6 14.4
2016-Aug-22 12:34 301 6 gusting 9 14.4
2016-Aug-22 11:34 165 0 gusting 4 14.4
2016-Aug-22 10:34 052 1 gusting 4 15.0
2016-Aug-22 09:34 323 4 gusting 7 15.6
2016-Aug-22 08:34 037 0 gusting 3 15.0
2016-Aug-22 07:34 14.4
2016-Aug-22 06:34 311 1 gusting 5 15.0
2016-Aug-22 05:34 275 1 gusting 4 15.6
2016-Aug-22 04:34 295 0 gusting 5 16.1
2016-Aug-22 03:34 003 1 gusting 6 16.7
2016-Aug-22 02:34 044 3 gusting 6 16.7
2016-Aug-22 01:34 025 4 gusting 6 17.2